createdAt,value
2022-12-23T00:02:00.862Z,99687.06
2022-12-23T00:04:27.373Z,99683.84
2022-12-23T00:06:53.765Z,99680.06
2022-12-23T00:09:21.327Z,99675.19
2022-12-23T00:12:13.673Z,99676.53
2022-12-23T00:14:58.827Z,99682.75
2022-12-23T00:17:25.253Z,99679.50
2022-12-23T00:19:51.628Z,99685.69
2022-12-23T00:22:18.194Z,99684.63
2022-12-23T00:24:44.620Z,99681.59
2022-12-23T00:27:11.041Z,99684.84
2022-12-23T00:29:37.438Z,99680.53
2022-12-23T00:32:04.579Z,99667.28
2022-12-23T00:34:31.005Z,99665.69
2022-12-23T00:36:57.419Z,99666.22
2022-12-23T00:39:42.277Z,99666.22
2022-12-23T00:42:27.435Z,99662.16
2022-12-23T00:45:13.802Z,99657.34
2022-12-23T00:47:58.834Z,99657.91
2022-12-23T00:50:25.339Z,99668.44
2022-12-23T00:52:51.758Z,99663.81
2022-12-23T00:55:18.241Z,99673.81
2022-12-23T00:57:44.714Z,99671.13
2022-12-23T01:00:11.691Z,99668.69
2022-12-23T01:02:57.046Z,99677.09
2022-12-23T01:05:38.909Z,99674.38
2022-12-23T01:08:08.349Z,99673.75
2022-12-23T01:10:39.341Z,99677.78
2022-12-23T01:13:07.175Z,99676.13
2022-12-23T01:15:33.918Z,99673.28
2022-12-23T01:18:00.590Z,99679.69
2022-12-23T01:20:27.998Z,99680.72
2022-12-23T01:22:54.424Z,99673.91
2022-12-23T01:25:20.838Z,99678.75
2022-12-23T01:27:47.265Z,99674.56
2022-12-23T01:30:13.862Z,99674.66
2022-12-23T01:32:40.557Z,99684.31
2022-12-23T01:35:07.120Z,99685.16
2022-12-23T01:37:33.732Z,99680.06
2022-12-23T01:40:00.161Z,99689.50
2022-12-23T01:42:46.688Z,99688.47
2022-12-23T01:45:32.363Z,99691.00
2022-12-23T01:48:21.843Z,99685.97
2022-12-23T01:51:05.510Z,99695.47
2022-12-23T01:53:37.121Z,99692.47
2022-12-23T01:56:10.601Z,99687.53
2022-12-23T01:58:40.681Z,99694.75
2022-12-23T02:01:27.721Z,99690.44
2022-12-23T02:03:58.454Z,99704.19
2022-12-23T02:06:53.297Z,99707.91
2022-12-23T02:09:26.270Z,99704.78
2022-12-23T02:12:30.102Z,99712.03
2022-12-23T02:15:51.481Z,99707.13
2022-12-23T02:18:30.109Z,99713.69
2022-12-23T02:21:21.562Z,99711.69
2022-12-23T02:24:00.434Z,99721.22
2022-12-23T02:26:46.056Z,99720.94
2022-12-23T02:29:57.365Z,99722.81
2022-12-23T02:32:48.004Z,99719.84
2022-12-23T02:35:35.937Z,99721.41
2022-12-23T02:38:11.927Z,99720.34
2022-12-23T02:41:09.147Z,99720.19
2022-12-23T02:43:41.746Z,99720.22
2022-12-23T02:46:20.717Z,99723.44
2022-12-23T02:48:58.735Z,99716.94
2022-12-23T02:51:32.575Z,99726.06
2022-12-23T02:54:03.041Z,99731.03
2022-12-23T02:56:33.041Z,99734.31
2022-12-23T02:59:11.351Z,99730.81
2022-12-23T03:01:39.907Z,99737.53
2022-12-23T03:04:07.013Z,99737.75
2022-12-23T03:06:39.463Z,99728.84
2022-12-23T03:09:13.539Z,99738.91
2022-12-23T03:11:42.934Z,99738.13
2022-12-23T03:14:27.883Z,99743.53
2022-12-23T03:17:09.053Z,99745.19
2022-12-23T03:19:48.239Z,99753.88
2022-12-23T03:22:32.918Z,99751.72
2022-12-23T03:25:20.809Z,99764.09
2022-12-23T03:27:59.143Z,99763.81
2022-12-23T03:30:26.427Z,99768.44
2022-12-23T03:32:58.200Z,99758.91
2022-12-23T03:35:31.429Z,99755.84
2022-12-23T03:38:01.869Z,99767.03
2022-12-23T03:40:35.000Z,99768.94
2022-12-23T03:43:08.246Z,99765.69
2022-12-23T03:45:45.253Z,99765.09
2022-12-23T03:48:29.543Z,99770.00
2022-12-23T03:50:59.734Z,99775.63
2022-12-23T03:53:32.418Z,99777.56
2022-12-23T03:56:06.981Z,99777.84
2022-12-23T03:58:43.454Z,99775.97
2022-12-23T04:01:20.998Z,99781.97
2022-12-23T04:04:03.511Z,99783.81
2022-12-23T04:06:37.435Z,99784.63
2022-12-23T04:09:07.355Z,99798.69
2022-12-23T04:11:36.600Z,99803.59
2022-12-23T04:14:03.242Z,99796.78
2022-12-23T04:16:30.082Z,99797.09
2022-12-23T04:18:56.552Z,99804.94
2022-12-23T04:21:23.579Z,99805.75
2022-12-23T04:23:49.971Z,99800.66
2022-12-23T04:26:16.382Z,99804.75
2022-12-23T04:28:42.770Z,99806.59
2022-12-23T04:31:09.231Z,99811.19
2022-12-23T04:33:36.153Z,99808.81
2022-12-23T04:36:02.645Z,99801.56
2022-12-23T04:38:29.603Z,99812.03
2022-12-23T04:40:55.980Z,99811.84
2022-12-23T04:43:23.569Z,99816.44
2022-12-23T04:45:51.427Z,99822.41
2022-12-23T04:48:18.641Z,99822.69
2022-12-23T04:50:45.241Z,99828.38
2022-12-23T04:53:11.644Z,99828.69
2022-12-23T04:55:38.371Z,99829.78
2022-12-23T04:58:04.959Z,99833.81
2022-12-23T05:00:37.172Z,99836.50
2022-12-23T05:03:06.140Z,99838.16
2022-12-23T05:05:32.656Z,99842.72
2022-12-23T05:08:05.694Z,99840.88
2022-12-23T05:10:32.125Z,99847.59
2022-12-23T05:12:58.658Z,99849.81
2022-12-23T05:15:25.366Z,99858.72
2022-12-23T05:17:51.767Z,99860.91
2022-12-23T05:20:18.210Z,99860.34
2022-12-23T05:22:44.639Z,99856.06
2022-12-23T05:25:11.257Z,99863.06
2022-12-23T05:27:37.638Z,99870.91
2022-12-23T05:30:04.835Z,99873.59
2022-12-23T05:32:31.276Z,99871.72
2022-12-23T05:34:57.678Z,99876.84
2022-12-23T05:37:24.177Z,99883.09
2022-12-23T05:39:50.587Z,99886.06
2022-12-23T05:42:19.311Z,99888.50
2022-12-23T05:44:45.960Z,99894.44
2022-12-23T05:47:12.482Z,99899.03
2022-12-23T05:49:38.923Z,99902.81
2022-12-23T05:52:05.649Z,99907.69
2022-12-23T05:54:32.058Z,99918.75
2022-12-23T05:56:58.488Z,99901.72
2022-12-23T05:59:30.601Z,99910.66
2022-12-23T06:01:57.708Z,99905.25
2022-12-23T06:04:24.944Z,99897.41
2022-12-23T06:06:51.380Z,99907.94
2022-12-23T06:09:17.790Z,99916.31
2022-12-23T06:11:44.257Z,99904.94
2022-12-23T06:14:10.891Z,99916.31
2022-12-23T06:16:37.386Z,99923.31
2022-12-23T06:19:04.188Z,99925.75
2022-12-23T06:21:30.895Z,99929.56
2022-12-23T06:23:57.657Z,99931.69
2022-12-23T06:26:24.164Z,99932.00
2022-12-23T06:28:50.585Z,99937.34
2022-12-23T06:31:17.031Z,99940.31
2022-12-23T06:33:43.845Z,99947.09
2022-12-23T06:36:10.254Z,99944.13
2022-12-23T06:38:36.788Z,99953.31
2022-12-23T06:41:03.387Z,99958.69
2022-12-23T06:43:29.918Z,99955.44
2022-12-23T06:45:56.363Z,99968.69
2022-12-23T06:48:23.044Z,99973.56
2022-12-23T06:50:49.489Z,99975.16
2022-12-23T06:53:15.897Z,99977.03
2022-12-23T06:55:42.306Z,99978.66
2022-12-23T06:58:08.826Z,99977.59
2022-12-23T07:00:35.687Z,99987.56
2022-12-23T07:03:02.152Z,99977.84
2022-12-23T07:05:36.491Z,99984.31
2022-12-23T07:08:03.779Z,99983.78
2022-12-23T07:10:30.250Z,99978.09
2022-12-23T07:12:56.725Z,99981.31
2022-12-23T07:15:23.118Z,99994.81
2022-12-23T07:17:49.596Z,100003.19
2022-12-23T07:20:16.801Z,100004.53
2022-12-23T07:22:43.267Z,100008.59
2022-12-23T07:25:09.941Z,100007.81
2022-12-23T07:27:36.606Z,100009.13
2022-12-23T07:30:03.468Z,100007.78
2022-12-23T07:32:30.029Z,100007.22
2022-12-23T07:34:56.432Z,100000.44
2022-12-23T07:37:25.937Z,100007.50
2022-12-23T07:39:52.337Z,100016.38
2022-12-23T07:42:44.095Z,100019.09
2022-12-23T07:45:05.869Z,100019.59
2022-12-23T07:47:32.313Z,100024.19
2022-12-23T07:49:58.731Z,100027.97
2022-12-23T07:52:25.172Z,100036.63
2022-12-23T07:54:51.604Z,100035.03
2022-12-23T07:57:17.995Z,100040.69
2022-12-23T07:59:44.402Z,100035.53
2022-12-23T08:02:11.379Z,100039.59
2022-12-23T08:04:42.637Z,100040.69
2022-12-23T08:07:12.323Z,100045.81
2022-12-23T08:09:38.749Z,100048.53
2022-12-23T08:12:05.719Z,100046.88
2022-12-23T08:14:32.131Z,100049.59
2022-12-23T08:16:58.582Z,100048.78
2022-12-23T08:19:25.001Z,100052.28
2022-12-23T08:21:51.468Z,100060.69
2022-12-23T08:24:17.870Z,100066.34
2022-12-23T08:26:44.236Z,100072.28
2022-12-23T08:29:10.687Z,100066.91
2022-12-23T08:31:37.268Z,100065.84
2022-12-23T08:34:03.922Z,100060.72
2022-12-23T08:36:32.817Z,100062.31
2022-12-23T08:39:02.772Z,100069.34
2022-12-23T08:41:32.733Z,100067.97
2022-12-23T08:43:59.332Z,100083.63
2022-12-23T08:46:26.766Z,100088.78
2022-12-23T08:48:54.115Z,100091.75
2022-12-23T08:51:46.315Z,100099.31
2022-12-23T08:54:13.114Z,100096.91
2022-12-23T08:56:42.003Z,100098.28
2022-12-23T08:59:18.727Z,100097.69
2022-12-23T09:01:46.029Z,100094.72
2022-12-23T09:04:12.506Z,100080.44
2022-12-23T09:06:41.712Z,100084.19
2022-12-23T09:09:10.666Z,100078.81
2022-12-23T09:11:37.775Z,100073.72
2022-12-23T09:14:06.120Z,100076.09
2022-12-23T09:16:32.722Z,100075.06
2022-12-23T09:18:59.334Z,100078.56
2022-12-23T09:21:26.011Z,100074.53
2022-12-23T09:23:52.436Z,100079.91
2022-12-23T09:26:22.147Z,100082.63
2022-12-23T09:28:48.599Z,100088.56
2022-12-23T09:31:15.402Z,100087.50
2022-12-23T09:33:42.024Z,100092.31
2022-12-23T09:36:08.848Z,100100.47
2022-12-23T09:38:36.096Z,100103.16
2022-12-23T09:41:10.055Z,100103.16
2022-12-23T09:43:52.899Z,100109.88
2022-12-23T09:46:22.856Z,100106.91
2022-12-23T09:49:14.719Z,100113.13
2022-12-23T09:51:41.291Z,100105.56
2022-12-23T09:54:17.846Z,100102.59
2022-12-23T09:56:52.641Z,100107.19
2022-12-23T09:59:37.049Z,100105.88
2022-12-23T10:02:26.320Z,100113.44
2022-12-23T10:05:26.020Z,100095.91
2022-12-23T10:08:01.548Z,100091.28
2022-12-23T10:10:42.805Z,100083.19
2022-12-23T10:13:23.896Z,100087.50
2022-12-23T10:15:51.866Z,100091.03
2022-12-23T10:18:46.365Z,100101.28
2022-12-23T10:21:29.881Z,100103.97
2022-12-23T10:23:56.316Z,100100.75
2022-12-23T10:26:29.897Z,100107.53
2022-12-23T10:29:19.412Z,100102.09
2022-12-23T10:32:33.565Z,100112.88
2022-12-23T10:35:33.549Z,100098.84
2022-12-23T10:38:16.962Z,100091.56
2022-12-23T10:41:08.800Z,100099.41
2022-12-23T10:43:54.521Z,100089.44
2022-12-23T10:46:33.861Z,100076.75
2022-12-23T10:49:20.158Z,100076.22
2022-12-23T10:51:57.394Z,100078.38
2022-12-23T10:54:28.847Z,100077.00
2022-12-23T10:56:55.385Z,100068.66
2022-12-23T10:59:28.231Z,100074.84
2022-12-23T11:02:02.480Z,100064.88
2022-12-23T11:04:35.121Z,100068.66
2022-12-23T11:07:34.277Z,100070.53
2022-12-23T11:09:54.125Z,100074.84
2022-12-23T11:12:26.012Z,100072.16
2022-12-23T11:14:56.537Z,100070.00
2022-12-23T11:17:24.991Z,100058.38
2022-12-23T11:20:20.051Z,100054.09
2022-12-23T11:22:48.027Z,100051.41
2022-12-23T11:25:42.254Z,100052.75
2022-12-23T11:28:11.394Z,100047.06
2022-12-23T11:30:56.533Z,100059.75
2022-12-23T11:33:28.228Z,100046.25
2022-12-23T11:36:04.385Z,100036.78
2022-12-23T11:38:31.210Z,100042.19
2022-12-23T11:40:58.138Z,100037.88
2022-12-23T11:43:27.229Z,100037.34
2022-12-23T11:46:18.067Z,100033.56
2022-12-23T11:48:50.043Z,100036.28
2022-12-23T11:51:26.647Z,100031.97
2022-12-23T11:53:59.748Z,100035.47
2022-12-23T11:56:29.427Z,100035.22
2022-12-23T11:59:06.228Z,100036.03
2022-12-23T12:01:33.119Z,100036.88
2022-12-23T12:04:03.991Z,100032.25
2022-12-23T12:06:32.477Z,100029.28
2022-12-23T12:09:02.973Z,100025.00
2022-12-23T12:11:36.429Z,100012.81
2022-12-23T12:14:08.348Z,99998.75
2022-12-23T12:16:54.398Z,99996.31
2022-12-23T12:19:26.197Z,99998.75
2022-12-23T12:21:59.041Z,100005.53
2022-12-23T12:24:31.541Z,99984.94
2022-12-23T12:27:02.582Z,99979.81
2022-12-23T12:29:51.191Z,99971.97
2022-12-23T12:32:53.181Z,99951.97
2022-12-23T12:35:32.150Z,99948.16
2022-12-23T12:38:13.242Z,99960.88
2022-12-23T12:40:47.327Z,99962.25
2022-12-23T12:43:33.334Z,99968.47
2022-12-23T12:46:06.299Z,99961.44
2022-12-23T12:48:47.380Z,99948.75
2022-12-23T12:51:38.929Z,99939.28
2022-12-23T12:54:32.298Z,99934.94
2022-12-23T12:56:59.681Z,99935.22
2022-12-23T12:59:33.954Z,99929.25
2022-12-23T13:02:07.373Z,99926.81
2022-12-23T13:04:58.985Z,99927.91
2022-12-23T13:07:40.687Z,99926.56
2022-12-23T13:10:57.332Z,99915.75
2022-12-23T13:13:29.180Z,99929.81
2022-12-23T13:16:22.296Z,99924.97
2022-12-23T13:19:04.113Z,99929.81
2022-12-23T13:21:54.974Z,99924.97
2022-12-23T13:24:31.854Z,99922.78
2022-12-23T13:27:11.789Z,99924.69
2022-12-23T13:30:02.615Z,99914.41
2022-12-23T13:32:45.680Z,99916.84
2022-12-23T13:35:12.295Z,99914.66
2022-12-23T13:37:53.021Z,99916.84
2022-12-23T13:40:39.481Z,99908.75
2022-12-23T13:43:18.382Z,99904.69
2022-12-23T13:45:47.404Z,99910.63
2022-12-23T13:48:41.797Z,99903.03
2022-12-23T13:51:23.991Z,99900.34
2022-12-23T13:54:14.591Z,99890.34
2022-12-23T13:56:52.714Z,99881.72
2022-12-23T13:59:19.203Z,99878.44
2022-12-23T14:01:52.229Z,99878.47
2022-12-23T14:04:35.268Z,99877.94
2022-12-23T14:07:21.319Z,99884.97
2022-12-23T14:09:53.181Z,99880.91
2022-12-23T14:12:27.670Z,99875.47
2022-12-23T14:15:41.843Z,99867.66
2022-12-23T14:18:39.150Z,99875.22
2022-12-23T14:21:29.070Z,99862.25
2022-12-23T14:24:04.701Z,99868.50
2022-12-23T14:26:56.381Z,99865.47
2022-12-23T14:29:39.328Z,99866.06
2022-12-23T14:32:20.829Z,99861.72
2022-12-23T14:35:16.294Z,99854.38
2022-12-23T14:37:43.589Z,99851.69
2022-12-23T14:40:38.024Z,99854.69
2022-12-23T14:43:23.538Z,99851.16
2022-12-23T14:46:05.275Z,99849.00
2022-12-23T14:48:47.852Z,99845.19
2022-12-23T14:51:14.173Z,99841.41
2022-12-23T14:53:53.620Z,99830.91
2022-12-23T14:56:43.626Z,99830.06
2022-12-23T14:59:16.393Z,99828.47
2022-12-23T15:01:52.906Z,99829.53
2022-12-23T15:04:34.001Z,99825.50
2022-12-23T15:07:16.448Z,99816.31
2022-12-23T15:10:00.485Z,99813.88
2022-12-23T15:12:33.213Z,99807.91
2022-12-23T15:15:14.029Z,99804.41
2022-12-23T15:17:41.140Z,99802.75
2022-12-23T15:20:23.013Z,99799.53
2022-12-23T15:22:50.425Z,99780.66
2022-12-23T15:25:29.779Z,99787.69
2022-12-23T15:28:01.941Z,99790.38
2022-12-23T15:30:46.058Z,99780.38
2022-12-23T15:33:51.940Z,99776.88
2022-12-23T15:36:06.358Z,99776.59
2022-12-23T15:38:37.408Z,99769.59
2022-12-23T15:41:13.380Z,99769.63
2022-12-23T15:43:41.791Z,99773.13
2022-12-23T15:46:26.881Z,99765.81
2022-12-23T15:48:56.625Z,99766.06
2022-12-23T15:52:06.481Z,99771.47
2022-12-23T15:54:34.042Z,99773.34
2022-12-23T15:57:02.293Z,99771.78
2022-12-23T15:59:37.418Z,99772.84
2022-12-23T16:02:58.295Z,99767.94
2022-12-23T16:05:07.541Z,99764.16
2022-12-23T16:07:40.112Z,99767.97
2022-12-23T16:10:19.908Z,99763.66
2022-12-23T16:12:50.187Z,99750.41
2022-12-23T16:15:31.791Z,99755.00
2022-12-23T16:18:25.586Z,99757.44
2022-12-23T16:20:57.135Z,99745.03
2022-12-23T16:23:28.584Z,99729.91
2022-12-23T16:25:55.195Z,99729.91
2022-12-23T16:28:26.517Z,99740.72
2022-12-23T16:30:56.310Z,99731.81
2022-12-23T16:33:26.253Z,99729.38
2022-12-23T16:35:54.438Z,99728.81
2022-12-23T16:38:25.955Z,99721.25
2022-12-23T16:40:55.180Z,99729.91
2022-12-23T16:43:24.258Z,99726.09
2022-12-23T16:45:54.132Z,99734.50
2022-12-23T16:48:30.773Z,99727.47
2022-12-23T16:50:57.796Z,99723.69
2022-12-23T16:53:24.342Z,99718.56
2022-12-23T16:55:55.297Z,99714.22
2022-12-23T16:58:25.257Z,99713.72
2022-12-23T17:00:53.151Z,99721.56
2022-12-23T17:03:20.563Z,99711.28
2022-12-23T17:05:47.962Z,99712.63
2022-12-23T17:08:14.521Z,99702.91
2022-12-23T17:10:44.440Z,99695.06
2022-12-23T17:13:17.474Z,99690.47
2022-12-23T17:15:44.499Z,99679.94
2022-12-23T17:18:17.035Z,99679.16
2022-12-23T17:20:46.616Z,99674.53
2022-12-23T17:23:25.568Z,99673.47
2022-12-23T17:25:52.498Z,99666.97
2022-12-23T17:28:19.724Z,99667.81
2022-12-23T17:30:46.187Z,99665.31
2022-12-23T17:33:19.285Z,99666.16
2022-12-23T17:35:45.855Z,99658.34
2022-12-23T17:38:16.577Z,99657.56
2022-12-23T17:40:47.057Z,99651.53
2022-12-23T17:43:18.174Z,99641.88
2022-12-23T17:45:45.460Z,99637.84
2022-12-23T17:48:19.733Z,99640.78
2022-12-23T17:50:48.673Z,99636.72
2022-12-23T17:53:19.569Z,99633.53
2022-12-23T17:55:46.390Z,99628.38
2022-12-23T17:58:13.992Z,99632.44
2022-12-23T18:00:40.996Z,99629.44
2022-12-23T18:03:19.508Z,99629.16
2022-12-23T18:05:45.937Z,99627.56
2022-12-23T18:08:12.323Z,99621.91
2022-12-23T18:10:40.835Z,99621.91
2022-12-23T18:13:13.956Z,99617.03
2022-12-23T18:15:42.637Z,99617.84
2022-12-23T18:18:26.090Z,99627.59
2022-12-23T18:20:57.123Z,99628.41
2022-12-23T18:23:26.598Z,99617.78
2022-12-23T18:25:54.327Z,99616.22
2022-12-23T18:28:20.739Z,99622.44
2022-12-23T18:30:47.238Z,99620.28
2022-12-23T18:33:13.972Z,99622.19
2022-12-23T18:35:50.341Z,99623.00
2022-12-23T18:38:17.550Z,99622.75
2022-12-23T18:40:44.377Z,99618.72
2022-12-23T18:43:31.121Z,99613.56
2022-12-23T18:45:57.577Z,99626.56
2022-12-23T18:48:24.265Z,99623.84
2022-12-23T18:50:50.680Z,99619.75
2022-12-23T18:53:25.211Z,99623.03
2022-12-23T18:55:53.173Z,99614.94
2022-12-23T18:58:20.204Z,99612.53
2022-12-23T19:00:48.252Z,99613.06
2022-12-23T19:03:27.324Z,99604.66
2022-12-23T19:05:55.202Z,99599.03
2022-12-23T19:08:26.720Z,99613.34
2022-12-23T19:10:55.175Z,99607.88
2022-12-23T19:13:22.527Z,99610.06
2022-12-23T19:15:49.421Z,99613.31
2022-12-23T19:18:18.610Z,99608.13
2022-12-23T19:20:46.200Z,99605.75
2022-12-23T19:23:12.900Z,99601.44
2022-12-23T19:25:50.767Z,99610.84
2022-12-23T19:28:20.899Z,99613.84
2022-12-23T19:30:47.403Z,99619.28
2022-12-23T19:33:13.834Z,99621.44
2022-12-23T19:35:44.091Z,99617.09
2022-12-23T19:38:12.337Z,99615.97
2022-12-23T19:40:39.965Z,99606.81
2022-12-23T19:43:06.790Z,99599.75
2022-12-23T19:45:33.256Z,99602.22
2022-12-23T19:47:59.686Z,99613.31
2022-12-23T19:50:27.114Z,99611.72
2022-12-23T19:52:55.140Z,99623.56
2022-12-23T19:55:21.882Z,99627.91
2022-12-23T19:57:49.163Z,99631.69
2022-12-23T20:00:15.873Z,99625.75
2022-12-23T20:02:43.321Z,99633.84
2022-12-23T20:05:10.136Z,99626.84
2022-12-23T20:07:36.936Z,99636.84
2022-12-23T20:10:05.287Z,99652.78
2022-12-23T20:12:32.086Z,99644.41
2022-12-23T20:14:58.488Z,99651.69
2022-12-23T20:17:25.407Z,99657.91
2022-12-23T20:19:51.818Z,99656.56
2022-12-23T20:22:18.292Z,99656.03
2022-12-23T20:24:45.026Z,99657.91
2022-12-23T20:27:13.947Z,99664.66
2022-12-23T20:29:42.095Z,99661.13
2022-12-23T20:32:08.526Z,99649.50
2022-12-23T20:34:39.567Z,99652.50
2022-12-23T20:37:07.462Z,99643.59
2022-12-23T20:39:34.278Z,99647.66
2022-12-23T20:42:00.889Z,99650.88
2022-12-23T20:44:36.551Z,99657.09
2022-12-23T20:47:05.372Z,99665.72
2022-12-23T20:49:31.986Z,99654.66
2022-12-23T20:51:58.387Z,99666.84
2022-12-23T20:54:32.132Z,99670.59
2022-12-23T20:56:59.816Z,99673.31
2022-12-23T20:59:26.492Z,99667.66
2022-12-23T21:01:53.073Z,99668.69
2022-12-23T21:04:20.380Z,99670.59
2022-12-23T21:06:46.782Z,99673.81
2022-12-23T21:09:15.050Z,99673.28
2022-12-23T21:11:44.323Z,99679.50
2022-12-23T21:14:11.239Z,99683.81
2022-12-23T21:16:38.748Z,99694.09
2022-12-23T21:19:13.023Z,99698.66
2022-12-23T21:21:39.621Z,99690.88
2022-12-23T21:24:06.735Z,99699.50
2022-12-23T21:26:35.338Z,99694.63
2022-12-23T21:29:04.584Z,99705.16
2022-12-23T21:31:32.934Z,99713.25
2022-12-23T21:34:00.207Z,99727.81
2022-12-23T21:36:31.136Z,99725.41
2022-12-23T21:38:58.429Z,99717.31
2022-12-23T21:41:28.062Z,99724.59
2022-12-23T21:43:56.279Z,99727.03
2022-12-23T21:46:24.215Z,99732.97
2022-12-23T21:48:51.847Z,99732.97
2022-12-23T21:51:21.365Z,99736.47
2022-12-23T21:53:50.140Z,99733.22
2022-12-23T21:56:27.114Z,99731.88
2022-12-23T21:58:58.447Z,99737.81
2022-12-23T22:01:25.872Z,99738.09
2022-12-23T22:03:53.609Z,99747.81
2022-12-23T22:06:23.352Z,99752.38
2022-12-23T22:08:51.483Z,99753.47
2022-12-23T22:11:30.371Z,99755.34
2022-12-23T22:13:58.674Z,99759.94
2022-12-23T22:16:27.145Z,99757.78
2022-12-23T22:18:54.717Z,99756.72
2022-12-23T22:21:24.107Z,99749.41
2022-12-23T22:23:52.149Z,99760.47
2022-12-23T22:26:25.608Z,99770.75
2022-12-23T22:28:57.798Z,99765.09
2022-12-23T22:31:24.215Z,99762.13
2022-12-23T22:33:50.689Z,99780.75
2022-12-23T22:36:17.541Z,99787.22
2022-12-23T22:38:44.405Z,99782.34
2022-12-23T22:41:11.098Z,99779.66
2022-12-23T22:43:38.073Z,99787.75
2022-12-23T22:46:05.592Z,99777.78
2022-12-23T22:48:32.296Z,99779.69
2022-12-23T22:51:26.489Z,99779.94
2022-12-23T22:53:53.409Z,99782.34
2022-12-23T22:56:21.534Z,99790.44
2022-12-23T22:58:49.033Z,99796.41
2022-12-23T23:01:22.279Z,99799.06
2022-12-23T23:03:54.172Z,99793.13
2022-12-23T23:06:20.560Z,99796.38
2022-12-23T23:08:47.010Z,99794.78
2022-12-23T23:11:13.447Z,99793.63
2022-12-23T23:13:42.601Z,99794.22
2022-12-23T23:16:09.195Z,99813.91
2022-12-23T23:18:35.734Z,99804.44
2022-12-23T23:21:03.559Z,99810.97
2022-12-23T23:23:29.950Z,99805.81
2022-12-23T23:25:56.439Z,99802.59
2022-12-23T23:28:23.175Z,99806.91
2022-12-23T23:30:59.065Z,99807.13
2022-12-23T23:33:36.006Z,99809.59
2022-12-23T23:36:03.357Z,99813.66
2022-12-23T23:38:29.805Z,99813.91
2022-12-23T23:40:57.958Z,99817.69
2022-12-23T23:43:25.166Z,99813.91
2022-12-23T23:45:52.391Z,99809.28
2022-12-23T23:48:19.088Z,99812.59
2022-12-23T23:50:45.598Z,99815.00
2022-12-23T23:53:12.437Z,99830.66
2022-12-23T23:55:39.389Z,99826.09
2022-12-23T23:58:07.294Z,99828.47
